Time;durP1;ratioP1;P1;durP2;ratioP2;P2;SDS_P1;SDS_P2;PMS_P1;PMS_P2;Temp;Humidity;BMP_temperature;BMP_pressure;BME280_temperature;BME280_humidity;BME280_pressure;Samples;Min_cycle;Max_cycle;Signal;HPM_P1;HPM_P2
2022/03/16 00:00:36;;;;;;;12.30;4.60;;;;;;;-1.87;70.38;100931.77;109631;1273;22434;-65
2022/03/16 00:03:06;;;;;;;7.50;4.10;;;;;;;-1.89;70.37;100932.00;109722;1271;22589;-64
2022/03/16 00:06:02;;;;;;;7.60;3.60;;;;;;;-1.91;70.17;100933.45;109687;1271;22446;-64
2022/03/16 00:08:31;;;;;;;8.60;3.90;;;;;;;-1.91;70.11;100937.20;109718;1270;22584;-64
2022/03/16 00:10:59;;;;;;;7.50;3.60;;;;;;;-1.92;69.66;100941.94;109530;1271;22441;-64
2022/03/16 00:13:28;;;;;;;6.00;3.30;;;;;;;-1.95;69.34;100938.45;109522;1273;22402;-64
2022/03/16 00:15:57;;;;;;;6.40;3.80;;;;;;;-1.97;69.41;100936.54;109684;1271;22401;-64
2022/03/16 00:18:25;;;;;;;9.00;3.50;;;;;;;-2.00;68.90;100934.80;109677;1271;23343;-64
2022/03/16 00:20:53;;;;;;;5.30;3.20;;;;;;;-2.02;68.85;100933.08;109702;1270;22450;-64
2022/03/16 00:23:21;;;;;;;6.30;3.40;;;;;;;-2.04;68.21;100929.41;109733;1271;22370;-64
2022/03/16 00:25:49;;;;;;;8.70;5.30;;;;;;;-2.06;68.14;100931.14;109690;1271;22426;-64
2022/03/16 00:28:18;;;;;;;6.70;3.60;;;;;;;-2.08;67.82;100925.80;109703;1270;24302;-64
2022/03/16 00:30:46;;;;;;;7.70;3.50;;;;;;;-2.09;67.82;100929.79;109572;1273;22974;-64
2022/03/16 00:33:17;;;;;;;7.40;3.20;;;;;;;-2.09;67.76;100932.15;109634;1272;23162;-65
2022/03/16 00:36:00;;;;;;;7.70;3.40;;;;;;;-2.08;67.79;100938.61;109463;1274;22418;-64
2022/03/16 00:38:28;;;;;;;6.70;3.30;;;;;;;-2.09;66.96;100937.27;109683;1272;22427;-64
2022/03/16 00:41:15;;;;;;;8.10;3.60;;;;;;;-2.11;67.04;100934.63;109674;1273;22433;-64
2022/03/16 00:43:43;;;;;;;5.20;3.00;;;;;;;-2.13;66.79;100938.21;109615;1272;22387;-64
2022/03/16 00:46:13;;;;;;;6.30;3.00;;;;;;;-2.17;66.48;100933.41;107841;1271;24400;-64
2022/03/16 00:48:44;;;;;;;5.20;2.70;;;;;;;-2.20;66.46;100928.90;105092;1274;24164;-64
2022/03/16 00:51:13;;;;;;;8.10;3.20;;;;;;;-2.21;66.08;100928.82;109751;1270;22422;-64
2022/03/16 00:53:45;;;;;;;6.80;2.90;;;;;;;-2.24;66.24;100925.13;109627;1274;22393;-64
2022/03/16 00:56:13;;;;;;;5.90;3.00;;;;;;;-2.26;66.08;100929.09;109716;1270;23309;-64
2022/03/16 00:58:42;;;;;;;5.70;2.90;;;;;;;-2.30;65.63;100929.82;109602;1272;22546;-64
2022/03/16 01:01:10;;;;;;;6.90;2.80;;;;;;;-2.34;65.67;100932.86;109667;1271;23154;-64
2022/03/16 01:03:41;;;;;;;6.30;2.50;;;;;;;-2.37;65.51;100938.28;109713;1271;22432;-64
2022/03/16 01:06:15;;;;;;;5.70;2.80;;;;;;;-2.38;65.38;100936.27;109670;1272;23454;-64
2022/03/16 01:08:43;;;;;;;4.80;2.90;;;;;;;-2.39;65.45;100931.73;109654;1272;22386;-65
2022/03/16 01:11:13;;;;;;;3.70;2.60;;;;;;;-2.40;65.64;100926.84;109662;1272;22387;-64
2022/03/16 01:13:42;;;;;;;6.00;3.00;;;;;;;-2.42;65.74;100928.46;109398;1274;22541;-64
2022/03/16 01:16:30;;;;;;;;;;;;;;;-2.46;65.66;100923.85;107288;1272;25508;-63
2022/03/16 01:19:00;;;;;;;7.20;2.90;;;;;;;-2.51;65.78;100925.47;109664;1273;22428;-63
2022/03/16 01:21:33;;;;;;;4.90;2.40;;;;;;;-2.54;66.09;100921.61;109576;1272;22426;-64
2022/03/16 01:24:09;;;;;;;7.60;2.90;;;;;;;-2.57;66.30;100919.58;109575;1273;23206;-64
2022/03/16 01:26:53;;;;;;;7.10;2.70;;;;;;;-2.60;66.02;100915.84;109667;1273;22483;-64
2022/03/16 01:29:22;;;;;;;3.70;2.50;;;;;;;-2.61;66.15;100910.81;109530;1273;22478;-63
2022/03/16 01:31:52;;;;;;;5.50;2.50;;;;;;;-2.64;66.21;100912.09;109679;1273;22430;-63
2022/03/16 01:34:20;;;;;;;6.80;3.10;;;;;;;-2.66;66.16;100914.55;109531;1272;23479;-64
2022/03/16 01:36:50;;;;;;;4.50;2.70;;;;;;;-2.66;66.25;100913.55;109485;1274;22661;-64
2022/03/16 01:39:19;;;;;;;6.20;2.90;;;;;;;-2.67;66.42;100912.90;109532;1272;23125;-64
2022/03/16 01:41:50;;;;;;;4.60;2.20;;;;;;;-2.68;66.32;100917.61;109498;1273;22435;-64
2022/03/16 01:44:28;;;;;;;4.70;2.60;;;;;;;-2.71;66.34;100917.71;109614;1273;22321;-64
2022/03/16 01:47:04;;;;;;;5.50;2.80;;;;;;;-2.73;66.38;100918.27;109543;1272;23194;-64
2022/03/16 01:49:33;;;;;;;7.30;3.10;;;;;;;-2.76;66.37;100920.14;109569;1273;22513;-64
2022/03/16 01:52:01;;;;;;;3.90;2.60;;;;;;;-2.78;66.34;100920.20;109582;1272;22449;-64
2022/03/16 01:54:40;;;;;;;4.30;2.40;;;;;;;-2.81;66.22;100917.09;109560;1272;22566;-64
2022/03/16 01:57:09;;;;;;;7.10;3.20;;;;;;;-2.83;66.16;100918.10;109583;1272;22933;-64
2022/03/16 01:59:38;;;;;;;6.20;2.40;;;;;;;-2.84;66.22;100919.64;109475;1273;23359;-63
2022/03/16 02:02:07;;;;;;;3.80;2.20;;;;;;;-2.87;66.01;100920.41;109512;1272;22419;-64
2022/03/16 02:04:35;;;;;;;3.90;2.10;;;;;;;-2.90;66.00;100921.19;109602;1271;22578;-63
2022/03/16 02:07:04;;;;;;;5.70;3.10;;;;;;;-2.92;65.81;100925.45;109620;1272;22465;-64
2022/03/16 02:09:35;;;;;;;4.00;2.40;;;;;;;-2.92;66.04;100928.87;109621;1272;22634;-64
2022/03/16 02:12:19;;;;;;;5.90;2.20;;;;;;;-2.94;65.78;100928.30;109657;1272;22392;-64
2022/03/16 02:14:48;;;;;;;5.20;2.40;;;;;;;-2.95;66.01;100928.99;109603;1273;22425;-64
2022/03/16 02:17:19;;;;;;;8.60;2.70;;;;;;;-2.98;65.86;100925.64;109676;1272;23104;-64
2022/03/16 02:19:47;;;;;;;4.90;2.20;;;;;;;-3.01;65.90;100923.30;109680;1272;22445;-64
2022/03/16 02:22:16;;;;;;;5.50;2.70;;;;;;;-3.03;65.88;100923.64;109564;1272;23139;-64
2022/03/16 02:24:45;;;;;;;7.90;2.70;;;;;;;-3.06;65.93;100924.96;109584;1272;22472;-64
2022/03/16 02:27:17;;;;;;;5.10;2.30;;;;;;;-3.08;66.13;100927.48;109602;1273;22851;-65
2022/03/16 02:29:45;;;;;;;4.60;2.60;;;;;;;-3.12;66.03;100927.27;109546;1272;22937;-64
2022/03/16 02:32:14;;;;;;;4.00;2.20;;;;;;;-3.13;66.19;100925.45;109527;1272;22397;-64
2022/03/16 02:34:42;;;;;;;6.60;2.00;;;;;;;-3.14;66.07;100929.29;109654;1273;22952;-65
2022/03/16 02:37:22;;;;;;;4.90;2.20;;;;;;;-3.16;65.89;100928.93;109566;1272;24112;-65
2022/03/16 02:39:50;;;;;;;4.10;2.20;;;;;;;-3.18;66.18;100925.20;109586;1272;22433;-64
2022/03/16 02:42:19;;;;;;;4.80;2.30;;;;;;;-3.20;66.12;100923.38;109549;1272;23300;-65
2022/03/16 02:44:48;;;;;;;5.10;2.20;;;;;;;-3.21;66.18;100926.65;109542;1272;23164;-64
2022/03/16 02:47:16;;;;;;;5.80;2.20;;;;;;;-3.23;66.07;100925.02;109522;1273;22436;-64
2022/03/16 02:49:45;;;;;;;6.80;2.40;;;;;;;-3.24;66.04;100932.75;109583;1272;22436;-64
2022/03/16 02:52:18;;;;;;;4.60;2.40;;;;;;;-3.25;66.04;100936.77;109556;1272;22420;-63
2022/03/16 02:54:45;;;;;;;5.00;2.20;;;;;;;-3.26;66.16;100937.76;109657;1272;22441;-63
2022/03/16 02:57:16;;;;;;;6.10;2.50;;;;;;;-3.28;66.15;100937.07;109670;1272;22439;-65
2022/03/16 02:59:44;;;;;;;7.10;3.00;;;;;;;-3.30;66.24;100937.95;109523;1272;22575;-63
2022/03/16 03:02:12;;;;;;;7.00;2.90;;;;;;;-3.32;66.29;100940.42;109626;1272;22386;-64
2022/03/16 03:04:42;;;;;;;5.60;2.50;;;;;;;-3.36;66.36;100932.39;109668;1272;22571;-64
2022/03/16 03:07:10;;;;;;;5.00;2.50;;;;;;;-3.35;66.57;100932.52;109643;1272;22466;-64
2022/03/16 03:09:51;;;;;;;3.70;2.20;;;;;;;-3.38;66.75;100929.05;109615;1271;22568;-64
2022/03/16 03:12:41;;;;;;;3.50;2.40;;;;;;;-3.43;66.84;100930.90;109696;1272;23438;-64
2022/03/16 03:15:13;;;;;;;5.00;1.90;;;;;;;-3.43;67.00;100933.73;109671;1270;23369;-64
2022/03/16 03:17:44;;;;;;;2.80;1.80;;;;;;;-3.45;67.02;100935.15;109734;1269;22383;-64
2022/03/16 03:20:21;;;;;;;3.70;2.00;;;;;;;-3.46;67.23;100931.56;109722;1270;23131;-64
2022/03/16 03:22:49;;;;;;;3.20;2.00;;;;;;;-3.49;67.32;100931.79;109667;1272;22441;-64
2022/03/16 03:25:18;;;;;;;4.60;2.10;;;;;;;-3.51;67.20;100932.89;109709;1273;23065;-64
2022/03/16 03:27:46;;;;;;;4.50;2.10;;;;;;;-3.54;67.43;100932.39;109617;1272;22982;-64
2022/03/16 03:30:14;;;;;;;4.10;2.00;;;;;;;-3.56;67.51;100934.88;109701;1270;22488;-64
2022/03/16 03:32:42;;;;;;;4.20;2.00;;;;;;;-3.58;67.51;100937.49;109737;1269;22381;-64
2022/03/16 03:35:10;;;;;;;5.10;2.80;;;;;;;-3.60;67.67;100933.05;109621;1271;22382;-64
2022/03/16 03:37:40;;;;;;;3.40;1.70;;;;;;;-3.61;67.84;100936.20;109688;1272;23198;-64
2022/03/16 03:40:08;;;;;;;5.50;2.20;;;;;;;-3.62;67.90;100943.19;109723;1270;22420;-64
2022/03/16 03:42:36;;;;;;;5.60;2.00;;;;;;;-3.61;68.01;100944.92;109660;1272;22438;-64
2022/03/16 03:45:12;;;;;;;4.10;2.40;;;;;;;-3.64;68.13;100943.91;109677;1271;23116;-64
2022/03/16 03:47:40;;;;;;;6.20;2.10;;;;;;;-3.64;68.24;100942.17;109718;1269;23241;-64
2022/03/16 03:50:11;;;;;;;5.60;2.40;;;;;;;-3.65;68.38;100944.91;109736;1270;22443;-64
2022/03/16 03:52:39;;;;;;;4.30;1.90;;;;;;;-3.67;68.65;100948.11;109726;1271;22424;-64
2022/03/16 03:55:25;;;;;;;4.50;2.40;;;;;;;-3.69;68.79;100948.41;109689;1271;22439;-64
2022/03/16 03:57:53;;;;;;;2.80;1.60;;;;;;;-3.69;69.02;100947.34;109654;1273;22459;-64
2022/03/16 04:00:21;;;;;;;4.60;2.00;;;;;;;-3.70;69.17;100952.27;109715;1271;22413;-65
2022/03/16 04:02:50;;;;;;;4.10;2.30;;;;;;;-3.70;69.29;100956.19;109651;1272;22380;-64
2022/03/16 04:05:18;;;;;;;3.10;2.00;;;;;;;-3.71;69.41;100950.74;109696;1273;22540;-63
2022/03/16 04:07:48;;;;;;;4.00;2.00;;;;;;;-3.71;69.61;100946.82;109686;1270;22393;-64
2022/03/16 04:10:16;;;;;;;4.00;2.10;;;;;;;-3.71;69.75;100948.98;109639;1272;22234;-64
2022/03/16 04:12:45;;;;;;;3.10;2.00;;;;;;;-3.72;69.72;100945.47;109722;1270;22390;-64
2022/03/16 04:15:13;;;;;;;5.50;2.20;;;;;;;-3.70;69.87;100948.88;109642;1271;23182;-64
2022/03/16 04:17:41;;;;;;;4.80;1.80;;;;;;;-3.70;69.91;100946.58;109735;1271;22398;-63
2022/03/16 04:20:09;;;;;;;5.10;2.40;;;;;;;-3.73;70.04;100945.21;109731;1271;22842;-64
2022/03/16 04:22:37;;;;;;;4.50;2.20;;;;;;;-3.70;70.13;100950.70;109658;1271;23338;-64
2022/03/16 04:25:08;;;;;;;4.50;2.00;;;;;;;-3.72;70.20;100948.33;109619;1272;22485;-64
2022/03/16 04:27:39;;;;;;;5.00;2.00;;;;;;;-3.75;70.37;100948.60;109700;1270;22319;-64
2022/03/16 04:30:10;;;;;;;5.50;2.40;;;;;;;-3.78;70.52;100951.90;109658;1271;23329;-64
2022/03/16 04:32:52;;;;;;;3.80;2.40;;;;;;;-3.81;70.42;100948.03;109653;1271;22418;-64
2022/03/16 04:35:20;;;;;;;3.40;2.10;;;;;;;-3.84;70.69;100942.43;109699;1271;22395;-64
2022/03/16 04:37:49;;;;;;;3.20;1.70;;;;;;;-3.82;70.89;100950.44;109638;1273;23222;-64
2022/03/16 04:40:18;;;;;;;4.20;2.10;;;;;;;-3.83;70.93;100955.33;109633;1273;22385;-65
2022/03/16 04:42:46;;;;;;;4.00;2.10;;;;;;;-3.83;71.16;100958.21;109679;1272;22438;-65
2022/03/16 04:45:14;;;;;;;4.90;2.30;;;;;;;-3.87;71.25;100951.41;109590;1272;22427;-64
2022/03/16 04:47:42;;;;;;;4.70;2.30;;;;;;;-3.81;71.35;100953.02;109588;1273;22424;-64
2022/03/16 04:50:10;;;;;;;3.20;2.10;;;;;;;-3.79;71.49;100955.54;109670;1272;22453;-64
2022/03/16 04:52:44;;;;;;;3.70;1.80;;;;;;;-3.76;71.33;100956.89;109593;1273;22552;-65
2022/03/16 04:55:12;;;;;;;4.00;2.20;;;;;;;-3.72;71.54;100958.98;109752;1270;23244;-64
2022/03/16 04:57:41;;;;;;;4.00;2.40;;;;;;;-3.68;71.50;100957.75;109712;1271;22391;-64
2022/03/16 05:00:13;;;;;;;4.60;2.60;;;;;;;-3.63;71.53;100955.52;109645;1272;22547;-64
2022/03/16 05:02:43;;;;;;;3.60;2.20;;;;;;;-3.58;71.52;100960.23;109695;1271;23088;-64
2022/03/16 05:05:12;;;;;;;4.00;2.10;;;;;;;-3.54;71.33;100957.48;109637;1272;22843;-63
2022/03/16 05:07:40;;;;;;;4.90;2.40;;;;;;;-3.54;71.26;100956.94;109727;1271;22383;-64
2022/03/16 05:10:09;;;;;;;4.90;3.10;;;;;;;-3.52;71.39;100960.65;109778;1270;22401;-64
2022/03/16 05:12:43;;;;;;;4.20;2.40;;;;;;;-3.50;71.35;100965.48;109703;1271;22906;-64
2022/03/16 05:15:15;;;;;;;7.40;3.10;;;;;;;-3.51;71.38;100972.66;109750;1270;22904;-64
2022/03/16 05:17:48;;;;;;;4.00;2.90;;;;;;;-3.51;71.58;100976.02;109605;1272;22379;-64
2022/03/16 05:20:17;;;;;;;3.70;2.40;;;;;;;-3.50;71.66;100972.02;109582;1273;22441;-64
2022/03/16 05:22:50;;;;;;;4.20;2.60;;;;;;;-3.48;71.72;100979.88;109624;1272;22617;-64
2022/03/16 05:25:23;;;;;;;5.80;2.40;;;;;;;-3.46;71.81;100986.21;109628;1272;23278;-64
2022/03/16 05:27:53;;;;;;;4.00;2.50;;;;;;;-3.47;71.80;100974.95;109718;1271;22565;-64
2022/03/16 05:30:23;;;;;;;5.20;2.40;;;;;;;-3.40;71.81;100982.37;109632;1272;22416;-64
2022/03/16 05:32:53;;;;;;;3.50;2.20;;;;;;;-3.33;71.80;100984.97;109677;1271;22418;-64
2022/03/16 05:35:24;;;;;;;4.50;2.40;;;;;;;-3.26;71.82;100981.13;109735;1270;22520;-64
2022/03/16 05:37:53;;;;;;;5.30;3.00;;;;;;;-3.18;71.77;100983.98;109619;1272;22434;-65
2022/03/16 05:40:28;;;;;;;8.50;3.20;;;;;;;-3.10;71.56;100987.71;109748;1271;23247;-64
2022/03/16 05:42:56;;;;;;;4.40;2.90;;;;;;;-3.10;71.24;100984.56;109685;1272;23618;-65
2022/03/16 05:45:24;;;;;;;4.60;2.50;;;;;;;-3.09;71.36;100986.18;109677;1273;23058;-65
2022/03/16 05:47:52;;;;;;;5.60;3.00;;;;;;;-3.09;71.48;100985.30;109664;1271;22420;-64
2022/03/16 05:50:21;;;;;;;6.10;3.40;;;;;;;-3.09;71.47;100983.95;109718;1271;23499;-65
2022/03/16 05:52:49;;;;;;;5.90;3.40;;;;;;;-3.07;71.57;100987.14;109764;1271;22243;-64
2022/03/16 05:55:17;;;;;;;6.30;2.60;;;;;;;-3.00;71.75;100987.91;109708;1270;23205;-65
2022/03/16 05:57:45;;;;;;;6.50;2.90;;;;;;;-2.93;71.51;100989.94;109748;1271;22466;-65
2022/03/16 06:00:21;;;;;;;7.00;2.60;;;;;;;-2.86;71.37;100988.80;109696;1270;23233;-65
2022/03/16 06:02:50;;;;;;;8.20;2.80;;;;;;;-2.80;71.16;100993.54;109645;1270;22518;-64
2022/03/16 06:05:23;;;;;;;6.40;3.90;;;;;;;-2.75;71.08;100994.88;109732;1271;22465;-64
2022/03/16 06:07:52;;;;;;;4.00;2.80;;;;;;;-2.67;70.55;101000.09;109692;1271;22399;-64
2022/03/16 06:10:39;;;;;;;4.40;2.50;;;;;;;-2.63;70.50;101001.51;109646;1272;22416;-64
2022/03/16 06:13:07;;;;;;;5.40;2.70;;;;;;;-2.56;70.53;101003.70;109721;1270;22449;-64
2022/03/16 06:15:42;;;;;;;3.30;2.40;;;;;;;-2.48;70.39;101001.40;109684;1273;23208;-64
2022/03/16 06:18:11;;;;;;;6.40;3.00;;;;;;;-2.44;69.45;100996.75;109549;1272;23235;-64
2022/03/16 06:20:39;;;;;;;4.30;2.80;;;;;;;-2.40;69.37;101001.56;109719;1270;22428;-64
2022/03/16 06:23:08;;;;;;;4.80;2.60;;;;;;;-2.38;69.64;100999.35;109714;1271;23099;-64
2022/03/16 06:25:40;;;;;;;5.20;3.10;;;;;;;-2.30;69.65;100997.26;109713;1270;22452;-64
2022/03/16 06:28:08;;;;;;;4.70;3.00;;;;;;;-2.20;69.67;100995.11;109657;1272;22421;-65
2022/03/16 06:30:41;;;;;;;5.00;3.10;;;;;;;-2.14;68.70;100997.20;109758;1270;22545;-64
2022/03/16 06:33:09;;;;;;;5.50;3.20;;;;;;;-2.13;68.85;100999.92;109677;1270;23082;-64
2022/03/16 06:35:37;;;;;;;7.10;3.40;;;;;;;-2.10;68.50;101009.66;108957;1271;22576;-64
2022/03/16 06:38:07;;;;;;;6.90;3.40;;;;;;;-2.05;68.48;101009.36;109747;1271;22236;-64
2022/03/16 06:40:37;;;;;;;6.50;3.60;;;;;;;-1.98;68.40;101015.82;109637;1272;22399;-64
2022/03/16 06:43:05;;;;;;;6.30;3.60;;;;;;;-1.93;68.21;101016.92;109727;1270;22422;-64
2022/03/16 06:45:33;;;;;;;5.70;2.90;;;;;;;-1.88;67.82;101018.52;109737;1270;23377;-64
2022/03/16 06:48:03;;;;;;;7.60;4.50;;;;;;;-1.84;68.01;101018.45;109661;1271;22317;-65
2022/03/16 06:50:31;;;;;;;8.80;4.60;;;;;;;-1.77;67.99;101014.08;109759;1270;22565;-64
2022/03/16 06:52:59;;;;;;;6.50;3.70;;;;;;;-1.69;67.56;101014.05;109703;1270;22447;-64
2022/03/16 06:55:27;;;;;;;26.30;14.40;;;;;;;-1.64;66.68;101014.83;109651;1272;22411;-64
2022/03/16 06:57:55;;;;;;;7.00;4.20;;;;;;;-1.58;67.03;101016.04;109730;1270;22471;-65
2022/03/16 07:00:25;;;;;;;8.80;3.60;;;;;;;-1.50;66.76;101019.36;109739;1270;22489;-64
2022/03/16 07:03:00;;;;;;;7.90;3.70;;;;;;;-1.40;66.27;101017.74;109654;1271;23284;-64
2022/03/16 07:05:31;;;;;;;5.60;3.20;;;;;;;-1.35;65.25;101020.30;109689;1270;22443;-64
2022/03/16 07:08:01;;;;;;;4.90;3.10;;;;;;;-1.33;65.61;101017.41;109772;1271;22437;-64
2022/03/16 07:10:40;;;;;;;5.40;2.90;;;;;;;-1.27;65.44;101023.43;109613;1272;22383;-64
2022/03/16 07:13:13;;;;;;;5.40;3.20;;;;;;;-1.15;65.57;101031.02;109742;1271;22402;-64
2022/03/16 07:15:43;;;;;;;6.40;3.10;;;;;;;-1.07;64.42;101033.82;109707;1271;23452;-64
2022/03/16 07:18:16;;;;;;;6.40;2.80;;;;;;;-1.01;63.32;101039.89;109678;1271;22475;-64
2022/03/16 07:20:48;;;;;;;8.70;4.70;;;;;;;-1.05;63.76;101035.81;109584;1274;23367;-65
2022/03/16 07:23:17;;;;;;;5.90;3.30;;;;;;;-1.00;63.71;101039.95;109644;1272;23049;-65
2022/03/16 07:25:49;;;;;;;7.20;3.40;;;;;;;-0.93;63.11;101041.25;109665;1272;22612;-65
2022/03/16 07:28:17;;;;;;;7.10;4.10;;;;;;;-0.87;62.65;101039.80;109736;1271;23157;-65
2022/03/16 07:30:46;;;;;;;8.60;3.20;;;;;;;-0.85;62.76;101044.17;109736;1271;22433;-65
2022/03/16 07:33:17;;;;;;;6.50;3.70;;;;;;;-0.83;62.88;101042.53;109652;1271;22402;-65
2022/03/16 07:35:46;;;;;;;8.30;3.90;;;;;;;-0.79;62.83;101038.92;109745;1271;23059;-65
2022/03/16 07:38:15;;;;;;;6.60;3.10;;;;;;;-0.69;62.93;101040.98;109709;1271;22486;-65
2022/03/16 07:40:44;;;;;;;8.00;3.10;;;;;;;-0.60;62.44;101037.63;109733;1271;22411;-65
2022/03/16 07:43:14;;;;;;;5.50;2.70;;;;;;;-0.50;61.75;101035.95;109690;1272;22506;-65
2022/03/16 07:45:42;;;;;;;10.30;3.20;;;;;;;-0.40;62.06;101033.73;109732;1270;22417;-65
2022/03/16 07:48:10;;;;;;;6.80;3.50;;;;;;;-0.31;61.13;101029.31;109603;1272;22406;-65
2022/03/16 07:50:39;;;;;;;4.70;2.70;;;;;;;-0.27;60.17;101032.81;109642;1272;22420;-65
2022/03/16 07:53:08;;;;;;;7.30;3.40;;;;;;;-0.27;59.17;101033.48;109758;1270;22892;-65
2022/03/16 07:55:36;;;;;;;5.00;3.00;;;;;;;-0.30;59.63;101030.80;109653;1272;23480;-65
2022/03/16 07:58:05;;;;;;;4.80;3.00;;;;;;;-0.31;59.40;101033.20;109711;1269;22411;-65
2022/03/16 08:00:34;;;;;;;5.30;3.00;;;;;;;-0.28;58.49;101035.93;109701;1273;22513;-65
2022/03/16 08:03:03;;;;;;;4.60;2.30;;;;;;;-0.24;57.40;101042.14;109604;1273;22318;-64
2022/03/16 08:05:31;;;;;;;4.00;2.30;;;;;;;-0.17;57.75;101040.08;109665;1272;22461;-64
2022/03/16 08:08:00;;;;;;;4.70;2.20;;;;;;;-0.10;57.44;101037.69;109679;1273;22396;-66
2022/03/16 08:10:29;;;;;;;5.00;3.10;;;;;;;-0.02;57.28;101035.17;109698;1271;22512;-65
2022/03/16 08:13:19;;;;;;;5.10;2.50;;;;;;;0.06;56.88;101037.05;109724;1271;22397;-65
2022/03/16 08:15:48;;;;;;;4.40;2.50;;;;;;;0.09;57.45;101035.95;109759;1271;23215;-64
2022/03/16 08:18:16;;;;;;;7.50;4.00;;;;;;;0.16;56.96;101035.50;109600;1272;22258;-64
2022/03/16 08:20:45;;;;;;;3.80;2.10;;;;;;;0.23;56.68;101034.54;109655;1272;22496;-64
2022/03/16 08:23:13;;;;;;;10.40;3.00;;;;;;;0.31;54.59;101033.52;109681;1271;22502;-64
2022/03/16 08:25:57;;;;;;;5.00;2.90;;;;;;;0.32;54.58;101036.28;109628;1272;22353;-64
2022/03/16 08:28:26;;;;;;;6.70;3.30;;;;;;;0.31;54.79;101036.17;109627;1272;22422;-64
2022/03/16 08:31:08;;;;;;;4.70;2.80;;;;;;;0.35;54.22;101033.89;109710;1270;23183;-65
2022/03/16 08:33:37;;;;;;;7.40;4.70;;;;;;;0.37;53.30;101031.95;109600;1271;22526;-64
2022/03/16 08:36:19;;;;;;;5.90;2.60;;;;;;;0.37;53.94;101037.97;109743;1271;22490;-65
2022/03/16 08:38:47;;;;;;;15.60;6.00;;;;;;;0.34;53.83;101036.27;109600;1272;22662;-64
2022/03/16 08:41:35;;;;;;;26.30;8.60;;;;;;;0.32;54.30;101039.48;109722;1270;22244;-64
2022/03/16 08:44:03;;;;;;;22.40;6.80;;;;;;;0.38;53.62;101041.10;109678;1273;22929;-65
2022/03/16 08:46:32;;;;;;;10.40;5.20;;;;;;;0.42;53.18;101040.67;109714;1270;22434;-64
2022/03/16 08:49:00;;;;;;;13.90;6.40;;;;;;;0.46;52.86;101042.42;109691;1271;22378;-64
2022/03/16 08:51:29;;;;;;;5.30;3.10;;;;;;;0.50;52.08;101038.21;109728;1271;22411;-66
2022/03/16 08:53:58;;;;;;;5.10;3.00;;;;;;;0.52;52.24;101035.31;109691;1273;22554;-64
2022/03/16 08:56:26;;;;;;;4.80;2.90;;;;;;;0.53;52.27;101032.97;109598;1271;22477;-64
2022/03/16 08:59:14;;;;;;;9.20;3.90;;;;;;;0.59;52.00;101036.55;109708;1272;22672;-65
2022/03/16 09:01:43;;;;;;;4.10;3.00;;;;;;;0.65;51.98;101040.09;109700;1271;22445;-65
2022/03/16 09:04:11;;;;;;;4.40;2.40;;;;;;;0.70;51.37;101039.27;109650;1271;23043;-64
2022/03/16 09:06:43;;;;;;;4.10;2.60;;;;;;;0.74;50.49;101037.46;109662;1271;23445;-65
2022/03/16 09:09:11;;;;;;;4.60;2.40;;;;;;;0.78;50.49;101031.60;109603;1271;22408;-64
2022/03/16 09:11:40;;;;;;;4.90;2.40;;;;;;;0.83;50.29;101029.13;109679;1271;22511;-65
2022/03/16 09:14:09;;;;;;;4.50;2.00;;;;;;;0.96;49.43;101032.96;109711;1271;22358;-65
2022/03/16 09:16:38;;;;;;;5.60;2.10;;;;;;;1.04;48.10;101034.64;109641;1273;22572;-65
2022/03/16 09:19:07;;;;;;;5.30;2.90;;;;;;;1.10;49.09;101037.94;109680;1271;22408;-65
2022/03/16 09:23:48;;;;;;;4.10;2.50;;;;;;;1.29;47.03;101032.36;102026;1309;545267;-65
2022/03/16 09:26:22;;;;;;;5.50;2.80;;;;;;;1.32;44.59;101034.95;108561;1282;23353;-66
2022/03/16 09:28:51;;;;;;;3.90;2.20;;;;;;;1.32;42.42;101033.61;109630;1273;22443;-66
2022/03/16 09:31:20;;;;;;;6.60;3.60;;;;;;;1.35;42.67;101034.09;109650;1272;22498;-65
2022/03/16 09:33:48;;;;;;;11.80;6.30;;;;;;;1.35;44.51;101031.91;109632;1271;23287;-65
2022/03/16 09:36:18;;;;;;;8.70;4.20;;;;;;;1.37;45.55;101030.08;109499;1271;522520;-64
2022/03/16 09:38:46;;;;;;;5.60;2.80;;;;;;;1.43;46.36;101034.16;109653;1270;22458;-65
2022/03/16 09:41:14;;;;;;;3.10;1.80;;;;;;;1.48;43.95;101034.27;109836;1268;22439;-64
2022/03/16 09:43:43;;;;;;;4.40;1.70;;;;;;;1.53;41.52;101037.89;109769;1268;22413;-64
2022/03/16 09:46:12;;;;;;;5.50;2.40;;;;;;;1.58;40.29;101037.35;109743;1268;22411;-65
2022/03/16 09:48:41;;;;;;;6.00;1.70;;;;;;;1.61;39.09;101041.06;109702;1270;22448;-65
2022/03/16 09:51:21;;;;;;;5.90;2.70;;;;;;;1.62;40.09;101045.97;109776;1269;22439;-65
2022/03/16 09:53:50;;;;;;;4.20;2.50;;;;;;;1.62;40.72;101040.47;109583;1270;24171;-65
2022/03/16 09:56:20;;;;;;;5.30;2.60;;;;;;;1.68;40.40;101044.64;109638;1271;23222;-64
2022/03/16 09:58:49;;;;;;;3.40;2.00;;;;;;;1.72;41.02;101049.08;109673;1271;22427;-65
2022/03/16 10:01:18;;;;;;;3.10;1.80;;;;;;;1.76;40.70;101048.97;109567;1271;22401;-64
2022/03/16 10:03:48;;;;;;;2.80;1.30;;;;;;;1.82;39.36;101046.98;109633;1271;23090;-64
2022/03/16 10:06:22;;;;;;;5.20;3.10;;;;;;;1.81;39.01;101045.23;109622;1271;23165;-63
2022/03/16 10:14:24;;;;;;;3.70;2.10;;;;;;;1.81;39.85;101058.33;109678;1271;23597;-65
2022/03/16 10:19:57;;;;;;;2.10;1.50;;;;;;;1.84;41.16;101054.45;109621;1271;22409;-64
2022/03/16 10:22:32;;;;;;;3.40;1.70;;;;;;;1.86;40.90;101052.11;109698;1271;22404;-64
2022/03/16 10:25:10;;;;;;;4.30;1.90;;;;;;;1.88;40.87;101055.76;109666;1271;22400;-66
2022/03/16 10:27:39;;;;;;;4.00;1.60;;;;;;;1.88;41.01;101059.34;109706;1270;23061;-66
2022/03/16 10:30:10;;;;;;;2.40;1.70;;;;;;;1.90;40.44;101056.64;109687;1271;22395;-65
2022/03/16 10:32:52;;;;;;;3.50;1.60;;;;;;;1.86;41.38;101056.16;109691;1271;22435;-65
2022/03/16 10:36:00;;;;;;;3.60;2.00;;;;;;;1.84;42.46;101057.50;109525;1271;22446;-66
2022/03/16 10:38:30;;;;;;;2.10;1.50;;;;;;;1.92;42.80;101057.34;109125;1278;22529;-66
2022/03/16 10:47:19;;;;;;;9.60;5.00;;;;;;;2.00;42.45;101051.64;109134;1278;22830;-64
2022/03/16 10:50:10;;;;;;;2.90;1.70;;;;;;;2.09;42.05;101058.34;109123;1277;22670;-64
2022/03/16 10:52:41;;;;;;;7.20;3.20;;;;;;;2.15;41.02;101062.21;109141;1278;22440;-65
2022/03/16 10:55:10;;;;;;;7.40;4.20;;;;;;;2.14;41.73;101056.20;109060;1278;23513;-63
2022/03/16 10:57:39;;;;;;;6.20;3.60;;;;;;;2.12;42.43;101064.77;109024;1278;23235;-65
2022/03/16 11:00:08;;;;;;;5.00;2.40;;;;;;;2.15;43.28;101061.88;109060;1279;22417;-65
2022/03/16 11:02:36;;;;;;;15.40;6.50;;;;;;;2.18;42.94;101063.51;109164;1278;22469;-65
2022/03/16 11:05:42;;;;;;;37.20;11.80;;;;;;;2.15;42.71;101058.75;109155;1277;22491;-65
2022/03/16 11:08:15;;;;;;;5.80;2.60;;;;;;;2.12;42.86;101061.27;109117;1278;23325;-65
2022/03/16 11:10:58;;;;;;;9.00;3.40;;;;;;;2.14;42.86;101060.52;109145;1277;22460;-65
2022/03/16 11:13:31;;;;;;;4.50;2.70;;;;;;;2.13;43.57;101060.44;109077;1278;22417;-66
2022/03/16 11:16:00;;;;;;;23.50;8.90;;;;;;;2.12;44.72;101058.89;109392;1273;22245;-63
2022/03/16 11:18:48;;;;;;;22.40;10.90;;;;;;;2.19;44.52;101054.80;109665;1271;23229;-65
2022/03/16 11:21:21;;;;;;;4.00;2.70;;;;;;;2.24;44.19;101057.38;109503;1271;22444;-65
2022/03/16 11:27:13;;;;;;;6.00;3.00;;;;;;;2.34;43.74;101055.12;109568;1271;22512;-65
2022/03/16 11:30:07;;;;;;;5.40;2.70;;;;;;;2.35;44.18;101048.54;109606;1271;22405;-65
2022/03/16 11:33:28;;;;;;;3.60;2.20;;;;;;;2.38;44.39;101049.22;109686;1271;22457;-65
2022/03/16 11:36:00;;;;;;;7.60;3.70;;;;;;;2.41;43.83;101044.28;109528;1272;22270;-65
2022/03/16 11:38:29;;;;;;;5.90;2.20;;;;;;;2.41;43.15;101042.44;109704;1270;23303;-65
2022/03/16 11:40:58;;;;;;;5.10;2.60;;;;;;;2.42;43.33;101040.15;109464;1271;22254;-65
2022/03/16 11:43:26;;;;;;;4.50;2.60;;;;;;;2.45;43.44;101036.40;109687;1271;22418;-65
2022/03/16 11:45:57;;;;;;;4.50;2.30;;;;;;;2.47;42.73;101039.21;109646;1271;22439;-65
2022/03/16 11:48:26;;;;;;;4.20;2.50;;;;;;;2.46;42.38;101036.45;109657;1271;22393;-65
2022/03/16 11:51:09;;;;;;;5.80;2.40;;;;;;;2.46;42.45;101033.06;109639;1271;22426;-65
2022/03/16 11:53:51;;;;;;;5.00;2.50;;;;;;;2.46;40.71;101032.90;109683;1271;22586;-65
2022/03/16 11:56:36;;;;;;;3.90;2.20;;;;;;;2.42;40.59;101030.66;109595;1271;22529;-65
2022/03/16 11:59:17;;;;;;;3.40;2.40;;;;;;;2.40;39.23;101028.76;109496;1273;22547;-65